Time;durP1;ratioP1;P1;durP2;ratioP2;P2;SDS_P1;SDS_P2;PMS_P1;PMS_P2;Temp;Humidity;BMP_temperature;BMP_pressure;BME280_temperature;BME280_humidity;BME280_pressure;Samples;Min_cycle;Max_cycle;Signal;HPM_P1;HPM_P2
2023/05/11 00:01:26;;;;;;;4.18;3.00;;;;;;;4.56;77.90;100836.53;4878258;28;20150;-57
2023/05/11 00:03:57;;;;;;;5.32;2.90;;;;;;;4.80;77.65;100871.47;4878103;28;20052;-57
2023/05/11 00:06:28;;;;;;;5.82;3.25;;;;;;;4.61;78.08;100816.75;4876225;28;20091;-57
2023/05/11 00:08:59;;;;;;;7.10;3.50;;;;;;;4.81;77.08;100855.06;4885236;28;20581;-56
2023/05/11 00:11:30;;;;;;;7.72;3.72;;;;;;;4.92;78.31;100854.41;4873277;28;20056;-57
2023/05/11 00:14:03;;;;;;;4.18;2.85;;;;;;;4.96;77.59;100857.91;4876866;28;20063;-57
2023/05/11 00:16:34;;;;;;;6.53;3.05;;;;;;;4.87;77.90;100860.34;4866060;28;20050;-58
2023/05/11 00:19:04;;;;;;;4.85;2.70;;;;;;;4.79;77.24;100862.78;4876519;28;20045;-57
2023/05/11 00:21:52;;;;;;;7.07;3.20;;;;;;;4.55;77.64;100811.50;4877284;28;20064;-57
2023/05/11 00:24:22;;;;;;;3.83;2.92;;;;;;;4.89;77.81;100858.63;4861985;28;21491;-57
2023/05/11 00:26:53;;;;;;;4.20;3.00;;;;;;;4.81;78.19;100849.88;4878847;28;20112;-57
2023/05/11 00:29:25;;;;;;;4.38;2.97;;;;;;;4.81;77.25;100855.94;4877111;28;20057;-57
2023/05/11 00:31:56;;;;;;;6.18;3.22;;;;;;;4.76;77.09;100858.44;4877301;28;20144;-57
2023/05/11 00:34:27;;;;;;;4.78;3.60;;;;;;;4.83;77.42;100848.19;4876193;28;21145;-57
2023/05/11 00:36:57;;;;;;;6.47;3.80;;;;;;;5.02;78.13;100858.00;4875793;28;20063;-57
2023/05/11 00:39:28;;;;;;;5.07;3.08;;;;;;;5.03;76.12;100851.97;4876566;28;20065;-57
2023/05/11 00:42:02;;;;;;;6.47;3.47;;;;;;;5.01;75.98;100861.44;4876493;28;20068;-57
2023/05/11 00:44:34;;;;;;;5.55;3.75;;;;;;;5.01;76.60;100864.03;4868994;28;20077;-56
2023/05/11 00:47:05;;;;;;;3.63;2.92;;;;;;;5.17;76.60;100858.25;4875062;28;20444;-57
2023/05/11 00:49:35;;;;;;;5.90;3.35;;;;;;;5.22;75.71;100862.59;4876596;28;20048;-56
2023/05/11 00:52:06;;;;;;;5.70;3.22;;;;;;;5.23;75.26;100859.19;4875877;28;20053;-57
2023/05/11 00:54:37;;;;;;;5.35;3.55;;;;;;;4.91;75.40;100799.97;4874335;28;20058;-57
2023/05/11 00:57:08;;;;;;;5.15;3.17;;;;;;;5.24;75.12;100860.91;4874794;28;20936;-57
2023/05/11 00:59:40;;;;;;;5.55;3.63;;;;;;;5.24;75.04;100851.44;4876284;28;20053;-57
2023/05/11 01:02:11;;;;;;;5.70;3.70;;;;;;;5.39;75.57;100846.47;4886993;28;20467;-57
2023/05/11 01:04:42;;;;;;;3.92;3.15;;;;;;;5.60;75.18;100845.88;4873130;28;20054;-56
2023/05/11 01:07:17;;;;;;;5.25;3.00;;;;;;;5.54;73.88;100827.69;4882037;28;20055;-57
2023/05/11 01:10:00;;;;;;;4.05;3.20;;;;;;;5.65;73.57;100842.50;4874916;28;20056;-57
2023/05/11 01:12:40;;;;;;;4.20;3.10;;;;;;;5.77;74.44;100853.03;4864862;28;20060;-58
2023/05/11 01:15:19;;;;;;;5.50;3.75;;;;;;;5.69;73.28;100849.44;4865388;28;20136;-58
2023/05/11 01:17:56;;;;;;;4.85;3.25;;;;;;;5.73;74.25;100840.88;4864467;28;20045;-57
2023/05/11 01:20:30;;;;;;;6.13;3.72;;;;;;;5.87;75.65;100834.13;4863286;28;20041;-57
2023/05/11 01:23:33;;;;;;;5.90;3.67;;;;;;;6.20;75.86;100844.03;4873264;28;20055;-56
2023/05/11 01:26:37;;;;;;;6.65;3.72;;;;;;;6.10;72.70;100846.53;4864291;28;20049;-57
2023/05/11 01:29:43;;;;;;;5.95;3.25;;;;;;;6.10;73.32;100844.78;4813791;28;20540;-57
2023/05/11 01:32:21;;;;;;;7.85;3.25;;;;;;;6.09;68.38;100834.38;4803684;28;20093;-57
2023/05/11 01:34:59;;;;;;;6.50;2.92;;;;;;;5.90;67.19;100836.75;4820798;28;20055;-56
2023/05/11 01:37:33;;;;;;;8.68;2.83;;;;;;;5.73;67.35;100830.50;4823349;28;20815;-57
2023/05/11 01:40:11;;;;;;;4.63;3.08;;;;;;;5.80;69.45;100821.94;4814361;28;20059;-57
2023/05/11 01:42:51;;;;;;;6.25;3.42;;;;;;;6.05;69.45;100829.19;4821285;28;20149;-57
2023/05/11 01:45:30;;;;;;;3.75;2.75;;;;;;;6.32;70.30;100827.72;4813390;28;20065;-57
2023/05/11 01:48:07;;;;;;;6.00;3.17;;;;;;;6.24;68.25;100817.28;4822727;28;20561;-56
2023/05/11 01:50:40;;;;;;;4.50;2.80;;;;;;;6.14;68.03;100817.16;4823961;28;20132;-57
2023/05/11 01:53:13;;;;;;;6.13;2.45;;;;;;;6.12;68.43;100818.88;4835598;28;20049;-57
2023/05/11 01:55:46;;;;;;;4.95;2.63;;;;;;;5.90;66.62;100771.03;4875243;28;20077;-57
2023/05/11 01:58:20;;;;;;;4.57;3.20;;;;;;;6.14;67.69;100811.97;4884570;28;20123;-57
2023/05/11 02:00:54;;;;;;;5.28;3.10;;;;;;;6.23;67.43;100807.72;4883184;28;20056;-57
2023/05/11 02:03:31;;;;;;;5.53;3.20;;;;;;;6.29;65.59;100817.31;4869941;28;20049;-57
2023/05/11 02:06:05;;;;;;;5.05;3.20;;;;;;;6.28;67.44;100810.38;4876792;28;20062;-57
2023/05/11 02:08:39;;;;;;;3.95;2.50;;;;;;;5.71;68.35;100738.84;4882714;28;20053;-59
2023/05/11 02:11:12;;;;;;;4.22;3.08;;;;;;;5.41;69.01;100737.63;4884203;28;20571;-57
2023/05/11 02:13:46;;;;;;;6.38;3.13;;;;;;;5.70;70.46;100814.91;4877788;28;20421;-57
2023/05/11 02:16:19;;;;;;;5.53;3.60;;;;;;;5.57;72.44;100825.13;4885105;28;20100;-57
2023/05/11 02:18:54;;;;;;;6.50;3.28;;;;;;;5.49;74.24;100821.56;4880859;28;20053;-57
2023/05/11 02:21:28;;;;;;;4.38;3.15;;;;;;;5.24;73.09;100797.03;4866372;28;20059;-57
2023/05/11 02:24:02;;;;;;;6.45;3.20;;;;;;;5.35;72.69;100812.72;4880607;28;20053;-57
2023/05/11 02:26:35;;;;;;;5.47;3.45;;;;;;;5.49;72.71;100800.81;4871912;28;20139;-57
2023/05/11 02:29:06;;;;;;;9.55;3.58;;;;;;;5.71;70.87;100814.03;4879859;28;20064;-57
2023/05/11 02:31:42;;;;;;;6.00;3.38;;;;;;;5.88;68.28;100803.88;4875093;28;20071;-58
2023/05/11 02:34:27;;;;;;;6.68;3.30;;;;;;;5.94;67.39;100804.84;4875720;28;20118;-57
2023/05/11 02:37:02;;;;;;;14.23;4.25;;;;;;;6.07;66.53;100799.81;4874568;28;20045;-57
2023/05/11 02:39:37;;;;;;;6.53;3.75;;;;;;;6.10;66.59;100784.25;4871603;28;20057;-57
2023/05/11 02:42:15;;;;;;;8.48;4.28;;;;;;;6.19;66.22;100789.50;4880348;28;20067;-57
2023/05/11 02:44:51;;;;;;;7.53;3.80;;;;;;;6.51;67.19;100787.22;4865921;28;20068;-57
2023/05/11 02:47:28;;;;;;;7.88;4.32;;;;;;;6.26;64.86;100703.09;4884381;28;20112;-57
2023/05/11 02:50:03;;;;;;;6.97;4.13;;;;;;;6.42;64.20;100710.16;4888043;28;20053;-57
2023/05/11 02:52:41;;;;;;;8.32;4.32;;;;;;;6.94;64.87;100791.88;4878041;28;20060;-57
2023/05/11 02:55:14;;;;;;;7.00;4.50;;;;;;;7.09;64.93;100789.41;4886307;28;20185;-57
2023/05/11 02:57:46;;;;;;;10.68;4.75;;;;;;;7.16;64.70;100759.97;4888008;28;20045;-57
2023/05/11 03:00:18;;;;;;;7.68;4.85;;;;;;;7.02;61.99;100754.72;4888096;28;20088;-57
2023/05/11 03:02:53;;;;;;;8.25;4.75;;;;;;;7.02;63.68;100770.31;4880597;28;20054;-57
2023/05/11 03:05:27;;;;;;;6.60;4.53;;;;;;;7.02;62.57;100779.84;4884963;28;20056;-57
2023/05/11 03:08:00;;;;;;;10.65;5.40;;;;;;;6.54;63.20;100744.84;4884989;28;20138;-57
2023/05/11 03:10:33;;;;;;;31.02;10.02;;;;;;;6.23;67.86;100786.97;4882897;28;20045;-57
2023/05/11 03:13:06;;;;;;;10.88;4.95;;;;;;;5.77;70.10;100776.09;4877845;28;20111;-57
2023/05/11 03:15:39;;;;;;;10.07;4.65;;;;;;;5.71;71.48;100790.69;4886059;28;20099;-57
2023/05/11 03:18:20;;;;;;;6.78;3.83;;;;;;;5.42;73.05;100762.72;4899309;22;20046;-56
2023/05/11 03:20:53;;;;;;;6.72;4.70;;;;;;;5.54;72.78;100799.16;4843211;28;20058;-56
2023/05/11 03:23:24;;;;;;;5.63;4.05;;;;;;;5.53;73.23;100787.03;4835062;28;20054;-57
2023/05/11 03:25:55;;;;;;;9.02;4.63;;;;;;;5.72;73.28;100789.88;4842061;28;20131;-57
2023/05/11 03:28:27;;;;;;;9.05;4.38;;;;;;;5.81;72.21;100771.78;4843053;28;20061;-57
2023/05/11 03:30:58;;;;;;;7.45;4.57;;;;;;;6.10;70.65;100786.84;4840393;28;20054;-57
2023/05/11 03:33:28;;;;;;;7.20;4.22;;;;;;;6.21;68.85;100777.44;4840507;28;20046;-57
2023/05/11 03:36:03;;;;;;;7.97;5.00;;;;;;;6.33;69.06;100777.56;4843193;28;20054;-57
2023/05/11 03:38:36;;;;;;;7.28;4.85;;;;;;;6.62;70.51;100774.34;4834079;28;20061;-56
2023/05/11 03:41:07;;;;;;;9.82;5.63;;;;;;;6.84;69.09;100773.66;4843509;28;20123;-57
2023/05/11 03:43:38;;;;;;;8.48;5.28;;;;;;;6.75;67.29;100763.19;4842686;28;20054;-57
2023/05/11 03:46:12;;;;;;;7.93;5.07;;;;;;;6.69;67.86;100769.22;4843200;28;20054;-57
2023/05/11 03:48:44;;;;;;;7.22;5.15;;;;;;;6.69;67.39;100766.63;4836931;28;20464;-57
2023/05/11 03:51:16;;;;;;;8.05;5.40;;;;;;;6.35;66.43;100747.28;4853226;28;20061;-57
2023/05/11 03:53:48;;;;;;;8.73;6.40;;;;;;;6.17;62.92;100734.16;4834473;28;20144;-57
2023/05/11 03:56:18;;;;;;;8.25;5.68;;;;;;;6.29;63.12;100762.81;4843557;28;20477;-57
2023/05/11 03:58:49;;;;;;;8.82;5.95;;;;;;;6.39;62.04;100766.34;4844241;28;20046;-57
2023/05/11 04:01:21;;;;;;;11.20;6.07;;;;;;;6.46;61.92;100761.25;4844783;28;20050;-57
2023/05/11 04:03:52;;;;;;;9.68;6.07;;;;;;;6.47;59.52;100775.97;4842341;28;20108;-57
2023/05/11 04:06:25;;;;;;;14.00;7.28;;;;;;;6.39;54.97;100736.09;4846559;28;20130;-57
2023/05/11 04:08:55;;;;;;;10.45;6.72;;;;;;;6.82;56.70;100762.38;4844351;28;20046;-56
2023/05/11 04:11:26;;;;;;;9.68;6.68;;;;;;;7.16;57.07;100757.38;4844049;28;20049;-57
2023/05/11 04:13:56;;;;;;;9.52;6.65;;;;;;;7.50;56.49;100749.75;4843839;28;20045;-58
2023/05/11 04:16:27;;;;;;;9.77;7.28;;;;;;;7.64;54.93;100753.28;4842131;28;20496;-57
2023/05/11 04:18:58;;;;;;;8.93;6.50;;;;;;;7.50;55.31;100747.16;4841966;28;20057;-58
2023/05/11 04:21:30;;;;;;;8.32;6.18;;;;;;;7.44;57.14;100736.69;4843778;28;20046;-57
2023/05/11 04:24:00;;;;;;;10.20;6.22;;;;;;;7.26;57.49;100738.38;4842899;28;20042;-57
2023/05/11 04:26:31;;;;;;;10.02;6.60;;;;;;;7.20;57.07;100753.06;4843545;28;20049;-60
2023/05/11 04:29:02;;;;;;;10.27;7.25;;;;;;;7.28;56.52;100741.84;4842722;28;20854;-57
2023/05/11 04:31:33;;;;;;;7.32;5.80;;;;;;;7.58;54.43;100740.22;4848062;28;20054;-57
2023/05/11 04:34:03;;;;;;;8.50;6.60;;;;;;;8.12;54.52;100715.22;4845105;28;20051;-57
2023/05/11 04:36:35;;;;;;;9.55;5.40;;;;;;;8.81;52.66;100730.84;4843829;28;20054;-58
2023/05/11 04:39:06;;;;;;;7.30;5.55;;;;;;;8.89;51.60;100724.75;4843856;28;20042;-58
2023/05/11 04:41:37;;;;;;;7.40;5.18;;;;;;;9.19;50.69;100731.63;4844339;28;20065;-58
2023/05/11 04:44:07;;;;;;;6.68;5.22;;;;;;;9.24;50.98;100724.66;4847619;28;20053;-57
2023/05/11 04:46:38;;;;;;;7.00;4.95;;;;;;;8.79;49.41;100726.50;4847339;28;20778;-57
2023/05/11 04:49:09;;;;;;;7.25;5.05;;;;;;;8.27;49.27;100716.97;4847944;28;20151;-57
2023/05/11 04:51:41;;;;;;;9.38;5.75;;;;;;;7.91;50.54;100722.97;4847968;28;20123;-57
2023/05/11 04:54:12;;;;;;;8.05;5.40;;;;;;;7.59;50.33;100715.97;4847903;28;20063;-57
2023/05/11 04:56:42;;;;;;;9.15;6.10;;;;;;;7.50;51.73;100716.81;4855310;28;20058;-56
2023/05/11 04:59:13;;;;;;;8.70;5.03;;;;;;;7.65;50.84;100713.38;4852151;28;20090;-58
2023/05/11 05:01:43;;;;;;;7.72;4.90;;;;;;;7.69;50.72;100686.53;4848790;28;20901;-56
2023/05/11 05:04:15;;;;;;;6.57;5.25;;;;;;;7.70;49.89;100713.41;4846748;28;20053;-56
2023/05/11 05:06:47;;;;;;;7.50;5.22;;;;;;;7.61;50.68;100710.75;4848130;28;20076;-56
2023/05/11 05:09:18;;;;;;;7.47;4.68;;;;;;;7.53;51.10;100715.94;4843799;28;20054;-57
2023/05/11 05:11:49;;;;;;;6.10;4.63;;;;;;;7.49;50.75;100709.03;4847020;28;20692;-57
2023/05/11 05:14:28;;;;;;;5.78;3.80;;;;;;;7.49;49.13;100699.47;4837247;28;20049;-57
2023/05/11 05:17:00;;;;;;;9.13;4.20;;;;;;;7.60;49.89;100696.91;4843147;28;20802;-57
2023/05/11 05:19:30;;;;;;;4.75;3.63;;;;;;;7.56;49.06;100684.75;4846959;28;20072;-58
2023/05/11 05:22:03;;;;;;;5.82;3.55;;;;;;;7.98;49.94;100693.50;4847323;28;20144;-58
2023/05/11 05:24:36;;;;;;;8.70;3.33;;;;;;;8.13;46.65;100657.06;4838523;28;20161;-57
2023/05/11 05:27:06;;;;;;;6.25;3.28;;;;;;;8.42;46.48;100684.88;4847871;28;20049;-57
2023/05/11 05:29:37;;;;;;;3.95;3.30;;;;;;;8.55;47.04;100676.16;4847481;28;20651;-57
2023/05/11 05:32:07;;;;;;;3.78;3.33;;;;;;;8.74;46.48;100681.38;4847160;28;20148;-57
2023/05/11 05:34:38;;;;;;;8.35;3.50;;;;;;;8.88;46.18;100676.09;4847676;28;20045;-57
2023/05/11 05:37:10;;;;;;;4.80;2.95;;;;;;;8.90;45.50;100667.41;4847882;28;20225;-57
2023/05/11 05:39:40;;;;;;;4.40;2.92;;;;;;;9.00;45.87;100663.91;4846832;28;20127;-58
2023/05/11 05:42:11;;;;;;;4.72;3.08;;;;;;;9.15;44.74;100668.19;4846583;28;20068;-58
2023/05/11 05:44:41;;;;;;;6.38;3.05;;;;;;;9.06;46.10;100663.00;4846485;28;20051;-57
2023/05/11 05:47:12;;;;;;;4.65;2.83;;;;;;;8.90;45.65;100662.19;4853676;28;20055;-57
2023/05/11 05:49:42;;;;;;;5.35;3.03;;;;;;;8.86;47.23;100670.88;4852609;28;20106;-57
2023/05/11 05:52:15;;;;;;;5.10;3.05;;;;;;;8.81;46.32;100662.22;4849789;28;20055;-57
2023/05/11 05:54:45;;;;;;;8.07;3.75;;;;;;;9.22;47.05;100669.03;4847175;28;20057;-57
2023/05/11 05:57:15;;;;;;;6.38;2.83;;;;;;;9.32;44.85;100664.66;4846568;28;20435;-57
2023/05/11 05:59:46;;;;;;;6.75;3.75;;;;;;;9.38;44.57;100660.25;4847539;28;20056;-58
2023/05/11 06:02:17;;;;;;;5.53;2.80;;;;;;;9.40;44.43;100649.81;4845843;28;20054;-58
2023/05/11 06:04:51;;;;;;;5.15;3.00;;;;;;;9.37;43.74;100658.53;4846283;28;20054;-56
2023/05/11 06:07:23;;;;;;;4.38;3.05;;;;;;;8.94;44.21;100669.13;4856917;28;20053;-58
2023/05/11 06:09:53;;;;;;;7.18;2.80;;;;;;;8.57;44.46;100664.00;4835928;28;21385;-57
2023/05/11 06:12:24;;;;;;;6.47;2.85;;;;;;;8.53;45.46;100664.88;4846374;28;20069;-57
2023/05/11 06:14:54;;;;;;;5.63;2.90;;;;;;;9.01;45.89;100662.16;4850746;28;20095;-58
2023/05/11 06:17:27;;;;;;;5.97;3.08;;;;;;;9.28;45.08;100669.00;4852341;28;20127;-56
2023/05/11 06:19:57;;;;;;;3.33;2.75;;;;;;;9.58;43.73;100657.53;4844223;28;20145;-57
2023/05/11 06:22:30;;;;;;;5.40;2.80;;;;;;;9.33;43.95;100648.13;4850403;28;20057;-57
2023/05/11 06:25:00;;;;;;;3.58;2.63;;;;;;;9.39;43.95;100662.00;4845938;28;20053;-58
2023/05/11 06:27:31;;;;;;;7.47;3.22;;;;;;;8.93;43.82;100662.19;4849827;28;20149;-58
2023/05/11 06:30:01;;;;;;;4.47;3.22;;;;;;;8.69;44.63;100662.28;4849995;28;20051;-57
2023/05/11 06:32:32;;;;;;;6.20;3.10;;;;;;;8.51;44.44;100653.63;4844487;28;20070;-58
2023/05/11 06:35:03;;;;;;;3.88;2.92;;;;;;;8.23;45.03;100672.69;4848235;28;20054;-58
2023/05/11 06:37:35;;;;;;;5.32;3.42;;;;;;;8.32;46.99;100670.09;4847069;28;20092;-57
2023/05/11 06:40:07;;;;;;;6.65;3.33;;;;;;;8.43;47.48;100666.63;4849195;28;20112;-57
2023/05/11 06:42:37;;;;;;;5.05;3.33;;;;;;;8.50;47.01;100664.88;4850534;28;20100;-57
2023/05/11 06:45:09;;;;;;;4.18;2.90;;;;;;;8.10;45.13;100598.94;4849439;28;20112;-58
2023/05/11 06:47:40;;;;;;;4.53;3.40;;;;;;;8.47;45.28;100677.91;4848141;28;20053;-57
2023/05/11 06:50:11;;;;;;;4.97;3.25;;;;;;;8.44;45.69;100683.13;4850156;28;20153;-58
2023/05/11 06:52:44;;;;;;;7.22;3.50;;;;;;;8.23;46.60;100675.28;4848793;28;21124;-57
2023/05/11 06:55:14;;;;;;;5.07;3.63;;;;;;;8.07;46.73;100693.50;4851146;28;20062;-57
2023/05/11 06:57:45;;;;;;;10.10;3.20;;;;;;;8.04;47.58;100677.91;4850200;28;20061;-57
2023/05/11 07:00:16;;;;;;;4.05;3.00;;;;;;;8.02;47.69;100671.81;4849723;28;20046;-57
2023/05/11 07:02:48;;;;;;;5.75;2.95;;;;;;;7.86;47.15;100673.56;4850066;28;20539;-58
2023/05/11 07:05:18;;;;;;;5.68;3.33;;;;;;;7.73;47.55;100682.19;4849780;28;20857;-58
2023/05/11 07:07:55;;;;;;;5.97;2.75;;;;;;;7.66;47.52;100696.94;4849319;28;20050;-58
2023/05/11 07:10:25;;;;;;;7.85;3.38;;;;;;;7.66;48.97;100677.84;4840382;28;20518;-58
2023/05/11 07:12:56;;;;;;;6.53;3.15;;;;;;;7.76;48.02;100670.06;4849710;28;20053;-57
2023/05/11 07:15:26;;;;;;;13.93;3.50;;;;;;;7.89;47.19;100683.09;4849739;28;20053;-57
2023/05/11 07:17:57;;;;;;;5.95;3.13;;;;;;;8.04;48.83;100675.31;4848941;28;20046;-57
2023/05/11 07:20:28;;;;;;;5.32;2.97;;;;;;;7.96;47.89;100684.81;4846820;28;20085;-57
2023/05/11 07:23:03;;;;;;;6.07;3.35;;;;;;;7.65;48.14;100692.56;4849183;28;20046;-57
2023/05/11 07:25:33;;;;;;;5.60;3.22;;;;;;;7.61;49.32;100677.81;4841037;28;20135;-57
2023/05/11 07:28:06;;;;;;;4.95;3.38;;;;;;;7.58;48.86;100693.41;4849822;28;20136;-57
2023/05/11 07:30:37;;;;;;;6.60;3.63;;;;;;;7.49;50.83;100693.41;4848336;28;20073;-57
2023/05/11 07:33:07;;;;;;;7.25;3.67;;;;;;;7.35;51.51;100686.41;4848133;28;20057;-57
2023/05/11 07:35:38;;;;;;;7.93;4.10;;;;;;;7.32;51.90;100691.63;4848343;28;20641;-57
2023/05/11 07:38:12;;;;;;;6.05;3.90;;;;;;;7.18;51.88;100698.47;4846031;28;20688;-57
2023/05/11 07:40:42;;;;;;;5.07;3.75;;;;;;;7.11;52.23;100696.72;4843939;28;20991;-58
2023/05/11 07:43:13;;;;;;;8.98;3.90;;;;;;;7.11;52.37;100707.09;4852544;28;20470;-57
2023/05/11 07:45:44;;;;;;;6.43;3.78;;;;;;;7.05;52.94;100707.09;4848940;28;20050;-58
2023/05/11 07:48:15;;;;;;;5.50;3.28;;;;;;;7.02;54.64;100712.28;4847951;28;20054;-56
2023/05/11 07:50:45;;;;;;;7.82;4.13;;;;;;;6.92;55.93;100708.75;4849019;28;20058;-58
2023/05/11 07:53:18;;;;;;;7.70;3.92;;;;;;;6.82;55.46;100710.44;4849295;28;20050;-58
2023/05/11 07:55:48;;;;;;;6.28;3.63;;;;;;;6.71;55.82;100722.47;4847496;28;20058;-57
2023/05/11 07:58:19;;;;;;;7.18;3.97;;;;;;;6.64;55.95;100715.47;4849841;28;20524;-57
2023/05/11 08:00:49;;;;;;;7.13;4.00;;;;;;;6.53;57.34;100719.75;4848656;28;20108;-56
2023/05/11 08:03:20;;;;;;;11.25;4.50;;;;;;;6.44;58.06;100729.22;4846839;28;20041;-57
2023/05/11 08:05:53;;;;;;;9.75;4.90;;;;;;;6.47;57.93;100733.56;4848274;28;20132;-57
2023/05/11 08:08:26;;;;;;;9.18;5.20;;;;;;;6.72;57.13;100729.41;4837731;28;20053;-58
2023/05/11 08:10:56;;;;;;;10.27;4.65;;;;;;;6.96;57.62;100733.88;4830764;28;20045;-59
2023/05/11 08:13:27;;;;;;;19.20;5.82;;;;;;;7.10;57.45;100733.97;4842235;28;20666;-58
2023/05/11 08:15:57;;;;;;;9.38;4.85;;;;;;;7.19;55.81;100741.81;4847889;28;20631;-58
2023/05/11 08:18:28;;;;;;;7.25;4.80;;;;;;;7.16;56.29;100741.78;4839216;28;20049;-58
2023/05/11 08:20:58;;;;;;;10.48;5.85;;;;;;;7.10;55.47;100746.97;4847613;28;20054;-57
2023/05/11 08:23:31;;;;;;;6.57;4.40;;;;;;;7.10;56.77;100742.63;4846541;28;20440;-57
2023/05/11 08:26:01;;;;;;;6.70;4.65;;;;;;;7.04;56.17;100747.81;4852467;28;20072;-57
2023/05/11 08:28:32;;;;;;;9.18;4.43;;;;;;;6.98;56.27;100752.06;4849882;28;20453;-57
2023/05/11 08:31:02;;;;;;;10.63;5.10;;;;;;;6.91;56.22;100754.66;4845216;28;20051;-57
2023/05/11 08:33:33;;;;;;;8.48;5.60;;;;;;;6.91;55.49;100757.25;4855390;28;20054;-58
2023/05/11 08:36:07;;;;;;;9.63;6.05;;;;;;;6.79;56.14;100751.97;4850409;28;20581;-57
2023/05/11 08:38:40;;;;;;;10.18;6.00;;;;;;;6.33;56.46;100689.31;4850475;28;20379;-57
2023/05/11 08:41:13;;;;;;;8.98;5.13;;;;;;;6.59;56.94;100737.94;4850639;28;20053;-57
2023/05/11 08:43:46;;;;;;;10.32;5.70;;;;;;;6.78;57.13;100745.03;4843139;28;20055;-57
2023/05/11 08:46:22;;;;;;;9.02;5.40;;;;;;;6.82;56.65;100767.56;4851402;28;20092;-57
2023/05/11 08:48:53;;;;;;;9.00;5.85;;;;;;;6.75;55.86;100773.56;4847297;28;20527;-57
2023/05/11 08:51:25;;;;;;;10.32;5.68;;;;;;;6.63;55.60;100770.88;4859909;28;20070;-58
2023/05/11 08:53:58;;;;;;;11.02;5.88;;;;;;;6.61;56.25;100777.78;4860400;28;20176;-57
2023/05/11 08:56:30;;;;;;;9.23;6.00;;;;;;;6.66;56.40;100777.00;4839356;28;20049;-57
2023/05/11 08:59:04;;;;;;;13.15;6.15;;;;;;;6.65;56.49;100779.56;4852566;28;20049;-57
2023/05/11 09:01:36;;;;;;;10.35;5.45;;;;;;;6.49;56.56;100747.41;4844005;28;20069;-56
2023/05/11 09:04:09;;;;;;;10.93;5.18;;;;;;;6.72;56.98;100781.34;4852002;28;20065;-58
2023/05/11 09:06:40;;;;;;;7.40;5.30;;;;;;;6.70;56.75;100767.47;4851733;28;20376;-57
2023/05/11 09:09:13;;;;;;;10.13;5.45;;;;;;;6.79;56.71;100780.53;4851505;28;20052;-58
2023/05/11 09:11:45;;;;;;;15.20;5.70;;;;;;;6.82;56.75;100785.75;4852404;28;20058;-58
2023/05/11 09:14:16;;;;;;;9.80;5.28;;;;;;;6.65;56.37;100780.44;4852162;28;20050;-57
2023/05/11 09:16:47;;;;;;;10.45;4.97;;;;;;;6.45;56.82;100785.44;4840979;28;20054;-57
2023/05/11 09:19:19;;;;;;;11.73;5.88;;;;;;;6.34;57.32;100787.09;4850756;28;20037;-57
2023/05/11 09:21:54;;;;;;;9.05;5.13;;;;;;;6.07;57.81;100800.66;4850087;28;20069;-57
2023/05/11 09:24:28;;;;;;;10.43;5.55;;;;;;;5.87;58.76;100792.63;4851524;28;20138;-58
2023/05/11 09:27:11;;;;;;;8.45;5.50;;;;;;;5.44;58.79;100745.44;4849558;28;20141;-58
2023/05/11 09:29:41;;;;;;;8.07;5.05;;;;;;;5.59;59.02;100813.03;4850725;28;20453;-57
2023/05/11 09:32:13;;;;;;;9.07;5.72;;;;;;;5.47;59.56;100807.69;4857322;28;20130;-58
2023/05/11 09:34:47;;;;;;;10.60;5.68;;;;;;;5.27;60.09;100804.84;4851043;28;20050;-58
2023/05/11 09:37:20;;;;;;;11.95;5.57;;;;;;;5.11;60.37;100819.28;4850755;28;20104;-58
2023/05/11 09:39:56;;;;;;;11.90;6.00;;;;;;;4.90;61.58;100824.16;4850962;28;20050;-60
2023/05/11 09:42:34;;;;;;;11.15;4.97;;;;;;;4.68;62.83;100844.50;4849746;28;20061;-57
2023/05/11 09:45:05;;;;;;;8.60;4.38;;;;;;;4.46;63.93;100844.97;4839816;28;20054;-58
2023/05/11 09:47:41;;;;;;;6.22;4.28;;;;;;;4.15;64.08;100828.91;4850077;28;20050;-58
2023/05/11 09:50:18;;;;;;;12.57;4.53;;;;;;;4.09;65.16;100846.88;4854123;28;20588;-58
2023/05/11 09:52:58;;;;;;;14.45;4.68;;;;;;;3.88;65.52;100843.03;4852362;28;20056;-58
2023/05/11 09:55:30;;;;;;;8.18;4.30;;;;;;;3.79;66.20;100860.06;4854747;28;20491;-58
2023/05/11 09:58:01;;;;;;;7.53;4.40;;;;;;;3.69;66.50;100869.31;4854109;28;20042;-57
2023/05/11 10:01:00;;;;;;;9.05;4.32;;;;;;;3.38;66.87;100845.41;4853971;28;20131;-56
2023/05/11 10:03:33;;;;;;;7.35;4.70;;;;;;;3.50;67.07;100874.97;4832706;28;20054;-58
2023/05/11 10:06:04;;;;;;;7.90;4.05;;;;;;;3.51;67.18;100892.19;4855995;28;20057;-57
2023/05/11 10:08:35;;;;;;;11.68;3.72;;;;;;;3.44;67.41;100881.75;4860056;28;20129;-58
2023/05/11 10:11:08;;;;;;;11.10;4.25;;;;;;;3.34;67.49;100889.22;4864476;28;20057;-58
2023/05/11 10:13:40;;;;;;;10.85;4.28;;;;;;;3.31;67.65;100900.34;4855663;28;20141;-58
2023/05/11 10:16:12;;;;;;;8.25;4.20;;;;;;;3.28;67.62;100905.47;4855092;28;20060;-58
2023/05/11 10:18:44;;;;;;;9.23;5.05;;;;;;;3.26;67.95;100917.47;4855952;28;20123;-57
2023/05/11 10:21:18;;;;;;;7.25;4.78;;;;;;;3.18;68.11;100909.53;4853901;28;20050;-58
2023/05/11 10:23:49;;;;;;;7.25;4.95;;;;;;;3.29;68.41;100924.41;4844466;28;20046;-57
2023/05/11 10:26:21;;;;;;;10.48;5.10;;;;;;;3.42;68.11;100929.00;4855324;28;20050;-57
2023/05/11 10:28:53;;;;;;;9.45;5.05;;;;;;;3.46;67.93;100936.88;4856214;28;20125;-58
2023/05/11 10:31:24;;;;;;;9.70;4.95;;;;;;;3.45;67.89;100945.47;4846734;28;20055;-59
2023/05/11 10:33:56;;;;;;;9.60;5.07;;;;;;;3.07;68.38;100889.44;4855566;28;20115;-58
2023/05/11 10:36:27;;;;;;;8.32;4.57;;;;;;;3.63;68.19;100960.53;4856584;28;20555;-58
2023/05/11 10:38:58;;;;;;;10.50;4.53;;;;;;;3.63;68.24;100964.84;4855331;28;20053;-57
2023/05/11 10:41:47;;;;;;;8.98;4.43;;;;;;;3.68;67.75;100973.56;4845239;28;20054;-57
2023/05/11 10:44:47;;;;;;;13.07;4.78;;;;;;;3.75;67.14;100974.59;4845172;28;20472;-58
2023/05/11 10:47:43;;;;;;;8.95;4.88;;;;;;;3.53;66.79;100949.94;4846091;28;20045;-57
2023/05/11 10:50:26;;;;;;;8.15;5.20;;;;;;;3.64;66.84;100969.16;4854913;28;20070;-57
2023/05/11 10:53:24;;;;;;;17.77;9.40;;;;;;;3.60;67.10;100985.44;4854839;28;20105;-57
2023/05/11 10:56:20;;;;;;;20.73;11.38;;;;;;;3.49;67.88;100986.88;4852458;28;20055;-58
2023/05/11 10:59:11;;;;;;;22.58;8.75;;;;;;;3.55;68.09;100997.38;4854008;28;20049;-58
2023/05/11 11:01:43;;;;;;;15.55;7.43;;;;;;;3.49;68.33;101002.38;4852799;28;20938;-58
2023/05/11 11:04:14;;;;;;;12.50;6.00;;;;;;;3.35;68.00;100997.75;4855677;28;20409;-56
2023/05/11 11:06:45;;;;;;;9.90;5.20;;;;;;;3.12;67.52;100960.13;4854133;28;20131;-57
2023/05/11 11:09:17;;;;;;;9.60;4.82;;;;;;;3.31;68.36;101003.69;4854720;28;20046;-57
2023/05/11 11:11:49;;;;;;;14.70;5.90;;;;;;;3.18;68.56;100986.13;4854633;28;20603;-57
2023/05/11 11:14:25;;;;;;;7.13;5.07;;;;;;;3.23;68.60;101005.22;4854719;28;20130;-57
2023/05/11 11:17:26;;;;;;;12.10;6.75;;;;;;;3.23;68.84;101005.22;4851992;28;20053;-58
2023/05/11 11:19:56;;;;;;;7.20;4.88;;;;;;;3.18;69.35;101002.50;4820201;28;20586;-58
2023/05/11 11:22:49;;;;;;;8.68;4.78;;;;;;;2.72;69.35;100938.47;4828869;28;20054;-57
2023/05/11 11:25:54;;;;;;;9.35;5.15;;;;;;;3.12;69.27;101011.78;4821790;28;20473;-57
2023/05/11 11:28:49;;;;;;;7.13;4.53;;;;;;;2.70;69.30;100973.72;4820959;28;20237;-57
2023/05/11 11:31:28;;;;;;;9.38;5.22;;;;;;;2.92;69.45;100999.25;4814072;28;20071;-58
2023/05/11 11:34:20;;;;;;;7.53;4.82;;;;;;;2.87;69.19;101006.00;4831854;28;20050;-57
2023/05/11 11:37:04;;;;;;;8.93;4.50;;;;;;;2.82;69.03;101017.88;4820353;28;20062;-57
2023/05/11 11:39:59;;;;;;;8.93;5.20;;;;;;;2.81;69.39;101017.00;4821300;28;20425;-58
2023/05/11 11:42:43;;;;;;;10.38;6.55;;;;;;;2.64;70.02;100999.31;4827548;28;20431;-58
2023/05/11 11:45:33;;;;;;;9.20;5.65;;;;;;;2.38;70.55;100958.22;4832290;28;20055;-57
2023/05/11 11:48:12;;;;;;;;;;;;;;;2.82;70.98;101017.88;4841973;28;20066;-57
2023/05/11 11:50:47;;;;;;;9.18;4.63;;;;;;;2.75;70.83;101018.56;4821812;28;20386;-57
2023/05/11 11:54:09;;;;;;;9.30;4.93;;;;;;;2.62;70.38;101019.94;4829552;28;20050;-57
2023/05/11 11:56:49;;;;;;;10.27;5.55;;;;;;;2.46;70.37;101013.47;4821217;28;20065;-58
2023/05/11 11:59:22;;;;;;;9.30;5.18;;;;;;;2.30;70.75;101012.16;4821135;28;20097;-57
2023/05/11 12:01:53;;;;;;;8.70;4.80;;;;;;;1.49;71.19;100898.91;4829415;28;20052;-58
2023/05/11 12:04:41;;;;;;;8.65;4.50;;;;;;;2.07;71.76;101024.38;4832558;28;20085;-58